Oshawa Airport

CYOO · Ontario, Kanada

METAR-Geschichte CYOO · Oshawa Airport

Unten siehst du die METARs der letzten paar Tage. Wähle ein Jahr, um ältere METARs ab dem Jahr 2007 zu durchsuchen.

19. Juli 2024

Uhrzeit Code Wetter Temp. Sichtweite Wolkendecke Wind METAR/SPECI
04:00
V
15 °C 9 mi - 340° 340° 4 kt METAR CYOO 190800Z AUTO 34004KT 9SM CLR 15/12 A3011 RMK SLP200
03:00
V
15 °C 9 mi - 340° 340° 5 kt METAR CYOO 190700Z AUTO 34005KT 9SM CLR 15/12 A3011 RMK SLP198
02:00
V
15 °C 9 mi - 330° 330° 5 kt METAR CYOO 190600Z AUTO 33005KT 9SM CLR 15/12 A3011 RMK SLP200
01:00
V
15 °C 9 mi - 340° 340° 5 kt METAR CYOO 190500Z AUTO 34005KT 9SM CLR 15/12 A3011 RMK SLP199
00:00
V
16 °C 9 mi - 330° 330° 5 kt METAR CYOO 190400Z AUTO 33005KT 9SM CLR 16/12 A3010 RMK SLP196

18. Juli 2024

Uhrzeit Code Wetter Temp. Sichtweite Wolkendecke Wind METAR/SPECI
23:00
V
16 °C 9 mi - 330° 330° 5 kt METAR CYOO 190300Z AUTO 33005KT 9SM CLR 16/12 A3009 RMK SLP193
22:00
V
17 °C 9 mi - 320° 320° 3 kt METAR CYOO 190200Z AUTO 32003KT 9SM CLR 17/12 A3009 RMK SLP192 DENSITY ALT 700FT
21:00
V
18 °C 9 mi - 320° 320° 6 kt METAR CYOO 190100Z AUTO 32006KT 9SM CLR 18/12 A3007 RMK SLP186 DENSITY ALT 800FT
20:00
V
20 °C 9 mi - 330° 330° 11 kt METAR CYOO 190000Z AUTO 33011KT 9SM CLR 20/12 A3007 RMK SLP184 DENSITY ALT 1000FT
19:00
V
21 °C 6 mi - 330° 330° 10 - 15 kt METAR CYOO 182300Z AUTO 33010G15KT 6SM HZ FEW060 21/12 A3005 RMK SLP178 DENSITY ALT 1200FT
18:00
V
21 °C 9 mi 6.000 ft 320° 320° 9 kt METAR CYOO 182200Z AUTO 32009KT 9SM BKN060 21/12 A3005 RMK SLP178 DENSITY ALT 1200FT
17:00
V
22 °C 9 mi - 330° 330° 11 - 17 kt METAR CYOO 182100Z AUTO 33011G17KT 280V340 9SM FEW044 SCT055 22/12 A3004 RMK SLP176 DENSITY ALT 1200FT
16:00
V
21 °C 9 mi 5.500 ft 320° 320° 12 kt METAR CYOO 182000Z AUTO 32012KT 280V340 9SM SCT043 BKN055 21/12 A3004 RMK SLP174 DENSITY ALT 1200FT
15:00
V
21 °C 9 mi - 320° 320° 12 kt METAR CYOO 181900Z AUTO 32012KT 9SM FEW041 SCT050 21/11 A3004 RMK SLP173 DENSITY ALT 1200FT
14:00
V
21 °C 9 mi 5.500 ft 300° 300° 10 - 15 kt METAR CYOO 181800Z AUTO 30010G15KT 9SM SCT045 OVC055 21/12 A3003 RMK SLP172 DENSITY ALT 1200FT
13:00
V
21 °C 9 mi 4.300 ft 290° 290° 12 - 17 kt METAR CYOO 181700Z AUTO 29012G17KT 270V340 9SM BKN043 21/12 A3003 RMK SLP172 DENSITY ALT 1200FT
12:00
V
21 °C 9 mi 3.900 ft 300° 300° 11 - 17 kt METAR CYOO 181600Z AUTO 30011G17KT 290V360 9SM BKN039 21/12 A3003 RMK SLP171 DENSITY ALT 1200FT
11:00
V
21 °C 9 mi - 310° 310° 10 - 15 kt METAR CYOO 181500Z AUTO 31010G15KT 280V340 9SM FEW035 21/13 A3002 RMK SLP166 DENSITY ALT 1200FT
10:00
V
19 °C 9 mi - 340° 340° 12 - 19 kt METAR CYOO 181400Z AUTO 34012G19KT 9SM FEW028 SCT034 19/13 A3000 RMK SLP162 DENSITY ALT 1000FT
09:00
V
19 °C 9 mi - 320° 320° 13 - 19 kt METAR CYOO 181300Z AUTO 32013G19KT 9SM FEW023 19/14 A2999 RMK SLP157 DENSITY ALT 1000FT
08:00
V
18 °C 9 mi - 310° 310° 12 kt METAR CYOO 181200Z AUTO 31012KT 9SM CLR 18/14 A2999 RMK SLP156 DENSITY ALT 900FT
07:00
V
16 °C 9 mi - 310° 310° 7 kt METAR CYOO 181100Z AUTO 31007KT 9SM CLR 16/14 A2996 RMK SLP147 DENSITY ALT 700FT
06:00
V
16 °C 9 mi - 310° 310° 10 - 16 kt METAR CYOO 181000Z AUTO 31010G16KT 9SM CLR 16/14 A2994 RMK SLP138 DENSITY ALT 700FT
05:00
V
15 °C 9 mi - 310° 310° 6 kt METAR CYOO 180900Z AUTO 31006KT 9SM CLR 15/14 A2992 RMK SLP132
04:00
V
16 °C 9 mi - 310° 310° 8 kt METAR CYOO 180800Z AUTO 31008KT 9SM CLR 16/13 A2991 RMK SLP130 DENSITY ALT 800FT
03:00
V
16 °C 9 mi - 310° 310° 8 kt METAR CYOO 180700Z AUTO 31008KT 9SM CLR 16/13 A2991 RMK SLP129 DENSITY ALT 800FT
02:00
V
17 °C 9 mi - 330° 330° 7 kt METAR CYOO 180600Z AUTO 33007KT 9SM CLR 17/12 A2990 RMK SLP127 DENSITY ALT 900FT
01:00
V
17 °C 9 mi - 330° 330° 6 kt METAR CYOO 180500Z AUTO 33006KT 9SM CLR 17/13 A2990 RMK SLP127 DENSITY ALT 900FT
00:00
V
18 °C 9 mi - 330° 330° 9 kt METAR CYOO 180400Z AUTO 33009KT 9SM CLR 18/13 A2989 RMK SLP124 DENSITY ALT 1000FT

17. Juli 2024

Uhrzeit Code Wetter Temp. Sichtweite Wolkendecke Wind METAR/SPECI
23:00
V
19 °C 9 mi - 320° 320° 6 kt METAR CYOO 180300Z AUTO 32006KT 9SM CLR 19/12 A2988 RMK SLP121 DENSITY ALT 1100FT
22:00
V
20 °C 9 mi - 340° 340° 7 kt METAR CYOO 180200Z AUTO 34007KT 9SM CLR 20/12 A2988 RMK SLP119 DENSITY ALT 1200FT
21:00
V
22 °C 9 mi - 340° 340° 4 kt METAR CYOO 180100Z AUTO 34004KT 9SM CLR 22/13 A2986 RMK SLP113 DENSITY ALT 1400FT
20:00
V
24 °C 9 mi - 310° 310° 7 kt METAR CYOO 180000Z AUTO 31007KT 9SM FEW100 24/14 A2985 RMK SLP107 DENSITY ALT 1700FT
19:00
V
25 °C 9 mi 9.600 ft 330° 330° 6 kt METAR CYOO 172300Z AUTO 33006KT 9SM BKN096 BKN120 25/13 A2984 RMK SLP106 DENSITY ALT 1800FT
18:00
V
25 °C 9 mi 11.000 ft 320° 320° 9 kt METAR CYOO 172200Z AUTO 32009KT 9SM FEW081 BKN110 25/12 A2983 RMK SLP100 DENSITY ALT 1800FT
17:00
V
27 °C 9 mi 6.000 ft 350° 350° 11 kt METAR CYOO 172100Z AUTO 35011KT 9SM BKN060 BKN073 BKN110 27/12 A2982 RMK SLP099 DENSITY ALT 2100FT
16:00
V
28 °C 9 mi 6.600 ft 310° 310° 11 - 18 kt METAR CYOO 172000Z AUTO 31011G18KT 270V350 9SM BKN066 28/13 A2982 RMK SLP098 DENSITY ALT 2200FT
15:00
V
28 °C 9 mi 6.000 ft 320° 320° 8 - 15 kt METAR CYOO 171900Z AUTO 32008G15KT 260V350 9SM BKN060 BKN160 28/13 A2983 RMK SLP100 DENSITY ALT 2200FT
14:00
V
27 °C 9 mi 17.000 ft 340° 340° 10 kt METAR CYOO 171800Z AUTO 34010KT 310V090 9SM SCT060 OVC170 27/13 A2982 RMK SLP098 DENSITY ALT 2100FT
13:00
V
27 °C 9 mi - 340° 340° 6 kt METAR CYOO 171700Z AUTO 34006KT 300V010 9SM SCT180 27/14 A2982 RMK SLP099 DENSITY ALT 2100FT
12:00
V
24 °C 9 mi 18.000 ft Var Var 2 kt METAR CYOO 171600Z AUTO VRB02KT 9SM FEW150 BKN180 24/18 A2983 RMK SLP100 DENSITY ALT 1800FT
11:00
V
23 °C 9 mi 22.000 ft 280° 280° 4 kt METAR CYOO 171500Z AUTO 28004KT 9SM FEW140 SCT170 BKN220 23/17 A2983 RMK SLP101 DENSITY ALT 1600FT
10:00
V
21 °C 9 mi 22.000 ft 220° 220° 3 kt METAR CYOO 171400Z AUTO 22003KT 190V260 9SM FEW180 BKN220 21/16 A2983 RMK SLP101 DENSITY ALT 1500FT
09:00
V
21 °C 9 mi 17.000 ft 260° 260° 3 kt METAR CYOO 171300Z AUTO 26003KT 9SM FEW130 SCT150 BKN170 21/16 A2982 RMK SLP099 DENSITY ALT 1400FT
08:00
V
20 °C 9 mi 19.000 ft 300° 300° 4 kt METAR CYOO 171200Z AUTO 30004KT 9SM FEW076 BKN190 BKN240 20/16 A2980 RMK SLP092 DENSITY ALT 1400FT
07:00
V
20 °C 9 mi 7.600 ft 270° 270° 2 kt METAR CYOO 171100Z AUTO 27002KT 9SM OVC076 20/17 A2979 RMK SLP088 DENSITY ALT 1300FT
06:00
V
20 °C 9 mi 7.600 ft 310° 310° 5 kt METAR CYOO 171000Z AUTO 31005KT 9SM BKN076 BKN140 BKN180 OVC220 20/17 A2977 RMK SLP080 DENSITY ALT 1300FT
05:00
V
20 °C 9 mi 23.000 ft 330° 330° 2 kt METAR CYOO 170900Z AUTO 33002KT 9SM SCT180 OVC230 20/19 A2975 RMK SLP074 DENSITY ALT 1300FT
04:00
V
20 °C 9 mi 8.100 ft 340° 340° 4 kt METAR CYOO 170800Z AUTO 34004KT 9SM BKN081 BKN230 20/20 A2974 RMK SLP072 DENSITY ALT 1400FT
03:00
V
20 °C 8 mi 4.200 ft 320° 320° 4 kt METAR CYOO 170700Z AUTO 32004KT 8SM FEW019 SCT034 BKN042 20/20 A2975 RMK SLP074 DENSITY ALT 1400FT
02:00
V
20 °C 9 mi 23.000 ft 360° 360° 0 kt METAR CYOO 170600Z AUTO 00000KT 9SM FEW081 BKN230 BKN250 20/20 A2975 RMK SLP074 DENSITY ALT 1400FT
Eine Änderung melden